sensor_id;sensor_type;location;lat;lon;timestamp;P1;durP1;ratioP1;P2;durP2;ratioP2
74180;SDS011;62544;50.826;14.354;2022-09-09T00:03:29;12.89;;;4.08;;
74180;SDS011;62544;50.826;14.354;2022-09-09T00:19:44;5.10;;;3.72;;
74180;SDS011;62544;50.826;14.354;2022-09-09T00:23:38;5.10;;;3.72;;
74180;SDS011;62544;50.826;14.354;2022-09-09T00:27:46;5.86;;;3.78;;
74180;SDS011;62544;50.826;14.354;2022-09-09T00:31:41;5.86;;;3.78;;
74180;SDS011;62544;50.826;14.354;2022-09-09T00:35:49;10.39;;;4.51;;
74180;SDS011;62544;50.826;14.354;2022-09-09T00:39:45;10.39;;;4.51;;
74180;SDS011;62544;50.826;14.354;2022-09-09T00:47:53;5.39;;;3.58;;
74180;SDS011;62544;50.826;14.354;2022-09-09T01:03:57;3.49;;;2.84;;
74180;SDS011;62544;50.826;14.354;2022-09-09T01:08:03;4.00;;;3.07;;
74180;SDS011;62544;50.826;14.354;2022-09-09T01:16:04;3.30;;;2.39;;
74180;SDS011;62544;50.826;14.354;2022-09-09T01:28:10;4.49;;;2.91;;
74180;SDS011;62544;50.826;14.354;2022-09-09T01:36:31;11.25;;;4.13;;
74180;SDS011;62544;50.826;14.354;2022-09-09T01:40:15;11.25;;;4.13;;
74180;SDS011;62544;50.826;14.354;2022-09-09T01:44:17;11.25;;;4.13;;
74180;SDS011;62544;50.826;14.354;2022-09-09T01:48:19;4.03;;;2.87;;
74180;SDS011;62544;50.826;14.354;2022-09-09T01:52:21;4.03;;;2.87;;
74180;SDS011;62544;50.826;14.354;2022-09-09T01:56:33;3.73;;;2.87;;
74180;SDS011;62544;50.826;14.354;2022-09-09T02:00:25;3.73;;;2.87;;
74180;SDS011;62544;50.826;14.354;2022-09-09T02:04:32;3.73;;;2.87;;
74180;SDS011;62544;50.826;14.354;2022-09-09T02:08:34;4.62;;;3.58;;
74180;SDS011;62544;50.826;14.354;2022-09-09T02:12:31;4.62;;;3.58;;
74180;SDS011;62544;50.826;14.354;2022-09-09T02:16:40;10.25;;;4.90;;
74180;SDS011;62544;50.826;14.354;2022-09-09T02:20:38;10.25;;;4.90;;
74180;SDS011;62544;50.826;14.354;2022-09-09T02:24:38;10.25;;;4.90;;
74180;SDS011;62544;50.826;14.354;2022-09-09T02:28:39;5.69;;;4.09;;
74180;SDS011;62544;50.826;14.354;2022-09-09T02:32:42;5.69;;;4.09;;
74180;SDS011;62544;50.826;14.354;2022-09-09T02:36:43;4.69;;;3.46;;
74180;SDS011;62544;50.826;14.354;2022-09-09T02:40:45;4.69;;;3.46;;
74180;SDS011;62544;50.826;14.354;2022-09-09T02:44:47;4.69;;;3.46;;
74180;SDS011;62544;50.826;14.354;2022-09-09T02:56:54;4.63;;;3.17;;
74180;SDS011;62544;50.826;14.354;2022-09-09T03:00:56;4.63;;;3.17;;
74180;SDS011;62544;50.826;14.354;2022-09-09T03:04:57;4.63;;;3.17;;
74180;SDS011;62544;50.826;14.354;2022-09-09T03:08:59;8.59;;;4.02;;
74180;SDS011;62544;50.826;14.354;2022-09-09T03:13:01;8.59;;;4.02;;
74180;SDS011;62544;50.826;14.354;2022-09-09T03:17:04;4.81;;;3.40;;
74180;SDS011;62544;50.826;14.354;2022-09-09T03:21:05;4.81;;;3.40;;
74180;SDS011;62544;50.826;14.354;2022-09-09T03:25:08;5.92;;;3.20;;
74180;SDS011;62544;50.826;14.354;2022-09-09T03:29:10;5.92;;;3.20;;
74180;SDS011;62544;50.826;14.354;2022-09-09T03:33:12;5.92;;;3.20;;
74180;SDS011;62544;50.826;14.354;2022-09-09T03:37:13;9.26;;;3.85;;
74180;SDS011;62544;50.826;14.354;2022-09-09T03:41:15;9.26;;;3.85;;
74180;SDS011;62544;50.826;14.354;2022-09-09T03:45:18;17.13;;;4.93;;
74180;SDS011;62544;50.826;14.354;2022-09-09T03:49:19;17.13;;;4.93;;
74180;SDS011;62544;50.826;14.354;2022-09-09T03:53:22;17.13;;;4.93;;
74180;SDS011;62544;50.826;14.354;2022-09-09T03:57:24;5.08;;;3.62;;
74180;SDS011;62544;50.826;14.354;2022-09-09T04:01:26;5.08;;;3.62;;
74180;SDS011;62544;50.826;14.354;2022-09-09T04:05:28;8.83;;;4.79;;
74180;SDS011;62544;50.826;14.354;2022-09-09T04:09:29;8.83;;;4.79;;
74180;SDS011;62544;50.826;14.354;2022-09-09T04:13:32;8.83;;;4.79;;
74180;SDS011;62544;50.826;14.354;2022-09-09T04:17:33;39.67;;;17.59;;
74180;SDS011;62544;50.826;14.354;2022-09-09T04:21:35;39.67;;;17.59;;
74180;SDS011;62544;50.826;14.354;2022-09-09T04:25:37;7.41;;;4.57;;
74180;SDS011;62544;50.826;14.354;2022-09-09T04:29:39;7.41;;;4.57;;
74180;SDS011;62544;50.826;14.354;2022-09-09T04:33:41;7.41;;;4.57;;
74180;SDS011;62544;50.826;14.354;2022-09-09T04:37:43;6.56;;;4.39;;
74180;SDS011;62544;50.826;14.354;2022-09-09T04:41:45;6.56;;;4.39;;
74180;SDS011;62544;50.826;14.354;2022-09-09T04:45:48;7.29;;;4.39;;
74180;SDS011;62544;50.826;14.354;2022-09-09T04:49:49;7.29;;;4.39;;
74180;SDS011;62544;50.826;14.354;2022-09-09T04:53:51;7.29;;;4.39;;
74180;SDS011;62544;50.826;14.354;2022-09-09T04:57:53;9.19;;;5.05;;
74180;SDS011;62544;50.826;14.354;2022-09-09T05:01:55;9.19;;;5.05;;
74180;SDS011;62544;50.826;14.354;2022-09-09T05:06:04;8.29;;;5.03;;
74180;SDS011;62544;50.826;14.354;2022-09-09T05:09:59;8.29;;;5.03;;
74180;SDS011;62544;50.826;14.354;2022-09-09T05:14:01;8.29;;;5.03;;
74180;SDS011;62544;50.826;14.354;2022-09-09T05:18:03;9.69;;;5.86;;
74180;SDS011;62544;50.826;14.354;2022-09-09T05:22:05;9.69;;;5.86;;
74180;SDS011;62544;50.826;14.354;2022-09-09T05:26:09;8.19;;;5.32;;
74180;SDS011;62544;50.826;14.354;2022-09-09T05:30:09;8.19;;;5.32;;
74180;SDS011;62544;50.826;14.354;2022-09-09T05:34:11;8.19;;;5.32;;
74180;SDS011;62544;50.826;14.354;2022-09-09T05:38:13;16.82;;;9.29;;
74180;SDS011;62544;50.826;14.354;2022-09-09T05:42:15;16.82;;;9.29;;
74180;SDS011;62544;50.826;14.354;2022-09-09T05:46:18;7.16;;;5.30;;
74180;SDS011;62544;50.826;14.354;2022-09-09T05:50:19;7.16;;;5.30;;
74180;SDS011;62544;50.826;14.354;2022-09-09T05:54:21;7.16;;;5.30;;
74180;SDS011;62544;50.826;14.354;2022-09-09T05:58:23;2.65;;;2.31;;
74180;SDS011;62544;50.826;14.354;2022-09-09T06:02:25;2.65;;;2.31;;
74180;SDS011;62544;50.826;14.354;2022-09-09T06:06:30;1.96;;;1.77;;
74180;SDS011;62544;50.826;14.354;2022-09-09T06:10:29;1.96;;;1.77;;
74180;SDS011;62544;50.826;14.354;2022-09-09T06:14:31;1.96;;;1.77;;
74180;SDS011;62544;50.826;14.354;2022-09-09T06:18:33;1.86;;;1.11;;
74180;SDS011;62544;50.826;14.354;2022-09-09T06:22:35;1.86;;;1.11;;
74180;SDS011;62544;50.826;14.354;2022-09-09T06:26:38;1.49;;;1.11;;
74180;SDS011;62544;50.826;14.354;2022-09-09T06:30:39;1.49;;;1.11;;
74180;SDS011;62544;50.826;14.354;2022-09-09T06:34:41;1.49;;;1.11;;
74180;SDS011;62544;50.826;14.354;2022-09-09T06:38:43;1.61;;;1.12;;
74180;SDS011;62544;50.826;14.354;2022-09-09T06:42:45;1.61;;;1.12;;
74180;SDS011;62544;50.826;14.354;2022-09-09T06:46:47;3.91;;;2.41;;
74180;SDS011;62544;50.826;14.354;2022-09-09T06:50:49;3.91;;;2.41;;
74180;SDS011;62544;50.826;14.354;2022-09-09T06:54:51;3.91;;;2.41;;
74180;SDS011;62544;50.826;14.354;2022-09-09T06:58:54;4.16;;;2.92;;
74180;SDS011;62544;50.826;14.354;2022-09-09T07:02:55;4.16;;;2.92;;
74180;SDS011;62544;50.826;14.354;2022-09-09T07:06:57;4.75;;;3.56;;
74180;SDS011;62544;50.826;14.354;2022-09-09T07:11:03;4.75;;;3.56;;
74180;SDS011;62544;50.826;14.354;2022-09-09T07:15:01;5.51;;;3.77;;
74180;SDS011;62544;50.826;14.354;2022-09-09T07:19:03;5.51;;;3.77;;
74180;SDS011;62544;50.826;14.354;2022-09-09T07:23:05;5.51;;;3.77;;
74180;SDS011;62544;50.826;14.354;2022-09-09T07:27:07;5.01;;;3.79;;
74180;SDS011;62544;50.826;14.354;2022-09-09T07:31:16;5.01;;;3.79;;
74180;SDS011;62544;50.826;14.354;2022-09-09T07:35:11;4.15;;;3.36;;
74180;SDS011;62544;50.826;14.354;2022-09-09T07:39:13;4.15;;;3.36;;
74180;SDS011;62544;50.826;14.354;2022-09-09T07:43:15;4.15;;;3.36;;
74180;SDS011;62544;50.826;14.354;2022-09-09T07:47:17;5.59;;;3.66;;
74180;SDS011;62544;50.826;14.354;2022-09-09T07:51:20;5.59;;;3.66;;
74180;SDS011;62544;50.826;14.354;2022-09-09T07:55:21;6.41;;;4.52;;
74180;SDS011;62544;50.826;14.354;2022-09-09T07:59:23;6.41;;;4.52;;
74180;SDS011;62544;50.826;14.354;2022-09-09T08:03:25;6.41;;;4.52;;
74180;SDS011;62544;50.826;14.354;2022-09-09T08:07:27;7.29;;;4.55;;
74180;SDS011;62544;50.826;14.354;2022-09-09T08:11:29;7.29;;;4.55;;
74180;SDS011;62544;50.826;14.354;2022-09-09T08:15:31;7.49;;;4.74;;
74180;SDS011;62544;50.826;14.354;2022-09-09T08:19:33;7.49;;;4.74;;
74180;SDS011;62544;50.826;14.354;2022-09-09T08:23:35;7.49;;;4.74;;
74180;SDS011;62544;50.826;14.354;2022-09-09T08:27:37;6.91;;;4.50;;
74180;SDS011;62544;50.826;14.354;2022-09-09T08:31:40;6.91;;;4.50;;
74180;SDS011;62544;50.826;14.354;2022-09-09T08:35:49;7.15;;;5.74;;
74180;SDS011;62544;50.826;14.354;2022-09-09T08:39:43;7.15;;;5.74;;
74180;SDS011;62544;50.826;14.354;2022-09-09T08:43:45;7.15;;;5.74;;
74180;SDS011;62544;50.826;14.354;2022-09-09T08:51:49;7.92;;;5.53;;
74180;SDS011;62544;50.826;14.354;2022-09-09T08:55:54;8.59;;;6.06;;
74180;SDS011;62544;50.826;14.354;2022-09-09T08:59:54;8.59;;;6.06;;
74180;SDS011;62544;50.826;14.354;2022-09-09T09:08:04;9.72;;;6.22;;
74180;SDS011;62544;50.826;14.354;2022-09-09T09:12:00;9.72;;;6.22;;
74180;SDS011;62544;50.826;14.354;2022-09-09T09:20:05;9.61;;;6.11;;
74180;SDS011;62544;50.826;14.354;2022-09-09T09:24:07;9.61;;;6.11;;
74180;SDS011;62544;50.826;14.354;2022-09-09T09:28:15;10.98;;;6.61;;
74180;SDS011;62544;50.826;14.354;2022-09-09T09:32:14;10.98;;;6.61;;
74180;SDS011;62544;50.826;14.354;2022-09-09T09:36:11;7.74;;;5.46;;
74180;SDS011;62544;50.826;14.354;2022-09-09T09:40:19;7.74;;;5.46;;
74180;SDS011;62544;50.826;14.354;2022-09-09T09:44:28;7.74;;;5.46;;
74180;SDS011;62544;50.826;14.354;2022-09-09T09:48:17;8.17;;;5.85;;
74180;SDS011;62544;50.826;14.354;2022-09-09T09:52:23;8.17;;;5.85;;
74180;SDS011;62544;50.826;14.354;2022-09-09T09:56:27;7.86;;;5.55;;
74180;SDS011;62544;50.826;14.354;2022-09-09T10:00:23;7.86;;;5.55;;
74180;SDS011;62544;50.826;14.354;2022-09-09T10:04:25;7.86;;;5.55;;
74180;SDS011;62544;50.826;14.354;2022-09-09T10:08:27;6.90;;;5.39;;
74180;SDS011;62544;50.826;14.354;2022-09-09T10:12:47;6.90;;;5.39;;
74180;SDS011;62544;50.826;14.354;2022-09-09T10:20:40;8.76;;;5.20;;
74180;SDS011;62544;50.826;14.354;2022-09-09T10:24:45;8.76;;;5.20;;
74180;SDS011;62544;50.826;14.354;2022-09-09T10:28:42;6.81;;;4.28;;
74180;SDS011;62544;50.826;14.354;2022-09-09T10:32:45;6.81;;;4.28;;
74180;SDS011;62544;50.826;14.354;2022-09-09T10:36:44;7.07;;;4.42;;
74180;SDS011;62544;50.826;14.354;2022-09-09T10:48:55;6.11;;;3.45;;
74180;SDS011;62544;50.826;14.354;2022-09-09T10:56:53;5.66;;;3.38;;
74180;SDS011;62544;50.826;14.354;2022-09-09T11:00:54;5.66;;;3.38;;
74180;SDS011;62544;50.826;14.354;2022-09-09T11:05:03;5.66;;;3.38;;
74180;SDS011;62544;50.826;14.354;2022-09-09T11:08:57;7.10;;;2.96;;
74180;SDS011;62544;50.826;14.354;2022-09-09T11:13:00;7.10;;;2.96;;
74180;SDS011;62544;50.826;14.354;2022-09-09T11:17:06;3.84;;;2.37;;
74180;SDS011;62544;50.826;14.354;2022-09-09T11:21:03;3.84;;;2.37;;
74180;SDS011;62544;50.826;14.354;2022-09-09T11:25:08;3.84;;;2.37;;
74180;SDS011;62544;50.826;14.354;2022-09-09T11:33:19;2.87;;;1.59;;
74180;SDS011;62544;50.826;14.354;2022-09-09T11:37:29;4.75;;;1.48;;
74180;SDS011;62544;50.826;14.354;2022-09-09T11:41:14;4.75;;;1.48;;
74180;SDS011;62544;50.826;14.354;2022-09-09T11:45:19;2.48;;;1.09;;
74180;SDS011;62544;50.826;14.354;2022-09-09T11:49:29;2.48;;;1.09;;
74180;SDS011;62544;50.826;14.354;2022-09-09T11:53:20;2.48;;;1.09;;
74180;SDS011;62544;50.826;14.354;2022-09-09T11:57:23;6.57;;;1.39;;
74180;SDS011;62544;50.826;14.354;2022-09-09T12:01:30;6.57;;;1.39;;
74180;SDS011;62544;50.826;14.354;2022-09-09T12:05:35;3.69;;;1.10;;
74180;SDS011;62544;50.826;14.354;2022-09-09T12:13:29;3.69;;;1.10;;
74180;SDS011;62544;50.826;14.354;2022-09-09T12:17:31;3.89;;;1.00;;
74180;SDS011;62544;50.826;14.354;2022-09-09T12:21:44;3.89;;;1.00;;
74180;SDS011;62544;50.826;14.354;2022-09-09T12:25:44;2.40;;;0.80;;
74180;SDS011;62544;50.826;14.354;2022-09-09T12:29:43;2.40;;;0.80;;
74180;SDS011;62544;50.826;14.354;2022-09-09T12:33:39;2.40;;;0.80;;
74180;SDS011;62544;50.826;14.354;2022-09-09T12:37:42;5.99;;;1.20;;
74180;SDS011;62544;50.826;14.354;2022-09-09T12:41:50;5.99;;;1.20;;
74180;SDS011;62544;50.826;14.354;2022-09-09T12:45:45;4.29;;;1.10;;
74180;SDS011;62544;50.826;14.354;2022-09-09T12:49:47;4.29;;;1.10;;
74180;SDS011;62544;50.826;14.354;2022-09-09T12:53:49;4.29;;;1.10;;
74180;SDS011;62544;50.826;14.354;2022-09-09T12:57:51;3.88;;;1.09;;
74180;SDS011;62544;50.826;14.354;2022-09-09T13:01:59;3.88;;;1.09;;
74180;SDS011;62544;50.826;14.354;2022-09-09T13:05:57;3.49;;;1.20;;
74180;SDS011;62544;50.826;14.354;2022-09-09T13:09:57;3.49;;;1.20;;
74180;SDS011;62544;50.826;14.354;2022-09-09T13:13:59;3.49;;;1.20;;
74180;SDS011;62544;50.826;14.354;2022-09-09T13:18:04;2.69;;;1.00;;
74180;SDS011;62544;50.826;14.354;2022-09-09T13:22:13;2.69;;;1.00;;
74180;SDS011;62544;50.826;14.354;2022-09-09T13:26:06;3.68;;;1.00;;
74180;SDS011;62544;50.826;14.354;2022-09-09T13:30:26;3.68;;;1.00;;
74180;SDS011;62544;50.826;14.354;2022-09-09T13:34:13;3.68;;;1.00;;
74180;SDS011;62544;50.826;14.354;2022-09-09T13:38:14;3.20;;;0.90;;
74180;SDS011;62544;50.826;14.354;2022-09-09T13:42:21;3.20;;;0.90;;
74180;SDS011;62544;50.826;14.354;2022-09-09T13:46:34;4.50;;;0.90;;
74180;SDS011;62544;50.826;14.354;2022-09-09T13:50:24;4.50;;;0.90;;
74180;SDS011;62544;50.826;14.354;2022-09-09T13:54:20;4.50;;;0.90;;
74180;SDS011;62544;50.826;14.354;2022-09-09T13:58:22;4.69;;;1.10;;
74180;SDS011;62544;50.826;14.354;2022-09-09T14:02:23;4.69;;;1.10;;
74180;SDS011;62544;50.826;14.354;2022-09-09T14:06:25;2.39;;;0.89;;
74180;SDS011;62544;50.826;14.354;2022-09-09T14:10:27;2.39;;;0.89;;
74180;SDS011;62544;50.826;14.354;2022-09-09T14:14:29;2.39;;;0.89;;
74180;SDS011;62544;50.826;14.354;2022-09-09T14:18:31;4.56;;;0.99;;
74180;SDS011;62544;50.826;14.354;2022-09-09T14:22:33;4.56;;;0.99;;
74180;SDS011;62544;50.826;14.354;2022-09-09T14:26:35;4.34;;;0.99;;
74180;SDS011;62544;50.826;14.354;2022-09-09T14:30:38;4.34;;;0.99;;
74180;SDS011;62544;50.826;14.354;2022-09-09T14:34:39;4.34;;;0.99;;
74180;SDS011;62544;50.826;14.354;2022-09-09T14:38:41;3.35;;;0.79;;
74180;SDS011;62544;50.826;14.354;2022-09-09T14:42:43;3.35;;;0.79;;
74180;SDS011;62544;50.826;14.354;2022-09-09T14:46:45;3.54;;;0.79;;
74180;SDS011;62544;50.826;14.354;2022-09-09T14:50:47;3.54;;;0.79;;
74180;SDS011;62544;50.826;14.354;2022-09-09T14:54:49;3.54;;;0.79;;
74180;SDS011;62544;50.826;14.354;2022-09-09T14:58:54;3.48;;;1.19;;
74180;SDS011;62544;50.826;14.354;2022-09-09T15:02:54;3.48;;;1.19;;
74180;SDS011;62544;50.826;14.354;2022-09-09T15:06:55;2.57;;;0.69;;
74180;SDS011;62544;50.826;14.354;2022-09-09T15:11:01;2.57;;;0.69;;
74180;SDS011;62544;50.826;14.354;2022-09-09T15:14:59;2.57;;;0.69;;
74180;SDS011;62544;50.826;14.354;2022-09-09T15:19:02;9.85;;;1.07;;
74180;SDS011;62544;50.826;14.354;2022-09-09T15:23:03;9.85;;;1.07;;
74180;SDS011;62544;50.826;14.354;2022-09-09T15:27:05;1.78;;;0.40;;
74180;SDS011;62544;50.826;14.354;2022-09-09T15:31:09;1.78;;;0.40;;
74180;SDS011;62544;50.826;14.354;2022-09-09T15:35:09;1.69;;;0.60;;
74180;SDS011;62544;50.826;14.354;2022-09-09T15:39:12;1.69;;;0.60;;
74180;SDS011;62544;50.826;14.354;2022-09-09T15:43:13;1.69;;;0.60;;
74180;SDS011;62544;50.826;14.354;2022-09-09T15:47:15;1.09;;;0.40;;
74180;SDS011;62544;50.826;14.354;2022-09-09T15:51:17;1.09;;;0.40;;
74180;SDS011;62544;50.826;14.354;2022-09-09T15:55:19;1.96;;;0.59;;
74180;SDS011;62544;50.826;14.354;2022-09-09T15:59:25;1.96;;;0.59;;
74180;SDS011;62544;50.826;14.354;2022-09-09T16:03:24;1.96;;;0.59;;
74180;SDS011;62544;50.826;14.354;2022-09-09T16:07:25;2.23;;;0.49;;
74180;SDS011;62544;50.826;14.354;2022-09-09T16:11:29;2.23;;;0.49;;
74180;SDS011;62544;50.826;14.354;2022-09-09T16:15:29;2.02;;;0.67;;
74180;SDS011;62544;50.826;14.354;2022-09-09T16:19:32;2.02;;;0.67;;
74180;SDS011;62544;50.826;14.354;2022-09-09T16:23:34;2.02;;;0.67;;
74180;SDS011;62544;50.826;14.354;2022-09-09T16:27:35;1.23;;;0.47;;
74180;SDS011;62544;50.826;14.354;2022-09-09T16:31:38;1.23;;;0.47;;
74180;SDS011;62544;50.826;14.354;2022-09-09T16:35:40;3.20;;;0.66;;
74180;SDS011;62544;50.826;14.354;2022-09-09T16:39:41;3.20;;;0.66;;
74180;SDS011;62544;50.826;14.354;2022-09-09T16:43:43;3.20;;;0.66;;
74180;SDS011;62544;50.826;14.354;2022-09-09T16:47:45;2.97;;;0.74;;
74180;SDS011;62544;50.826;14.354;2022-09-09T16:51:48;2.97;;;0.74;;
74180;SDS011;62544;50.826;14.354;2022-09-09T16:55:49;1.37;;;0.55;;
74180;SDS011;62544;50.826;14.354;2022-09-09T16:59:51;1.37;;;0.55;;
74180;SDS011;62544;50.826;14.354;2022-09-09T17:03:54;1.37;;;0.55;;
74180;SDS011;62544;50.826;14.354;2022-09-09T17:07:55;1.74;;;0.52;;
74180;SDS011;62544;50.826;14.354;2022-09-09T17:11:57;1.74;;;0.52;;
74180;SDS011;62544;50.826;14.354;2022-09-09T17:15:59;2.54;;;0.85;;
74180;SDS011;62544;50.826;14.354;2022-09-09T17:20:02;2.54;;;0.85;;
74180;SDS011;62544;50.826;14.354;2022-09-09T17:24:04;2.54;;;0.85;;
74180;SDS011;62544;50.826;14.354;2022-09-09T17:28:05;3.96;;;0.91;;
74180;SDS011;62544;50.826;14.354;2022-09-09T17:32:07;3.96;;;0.91;;
74180;SDS011;62544;50.826;14.354;2022-09-09T17:36:19;4.25;;;1.02;;
74180;SDS011;62544;50.826;14.354;2022-09-09T17:40:11;4.25;;;1.02;;
74180;SDS011;62544;50.826;14.354;2022-09-09T17:44:13;4.25;;;1.02;;
74180;SDS011;62544;50.826;14.354;2022-09-09T17:48:15;2.34;;;1.01;;
74180;SDS011;62544;50.826;14.354;2022-09-09T17:52:17;2.34;;;1.01;;
74180;SDS011;62544;50.826;14.354;2022-09-09T17:56:20;7.90;;;1.44;;
74180;SDS011;62544;50.826;14.354;2022-09-09T18:00:21;7.90;;;1.44;;
74180;SDS011;62544;50.826;14.354;2022-09-09T18:04:23;7.90;;;1.44;;
74180;SDS011;62544;50.826;14.354;2022-09-09T18:08:25;3.69;;;0.97;;
74180;SDS011;62544;50.826;14.354;2022-09-09T18:12:27;3.69;;;0.97;;
74180;SDS011;62544;50.826;14.354;2022-09-09T18:16:30;4.11;;;1.67;;
74180;SDS011;62544;50.826;14.354;2022-09-09T18:20:31;4.11;;;1.67;;
74180;SDS011;62544;50.826;14.354;2022-09-09T18:24:33;4.11;;;1.67;;
74180;SDS011;62544;50.826;14.354;2022-09-09T18:28:36;5.07;;;1.61;;
74180;SDS011;62544;50.826;14.354;2022-09-09T18:32:37;5.07;;;1.61;;
74180;SDS011;62544;50.826;14.354;2022-09-09T18:36:43;3.51;;;1.34;;
74180;SDS011;62544;50.826;14.354;2022-09-09T18:40:42;3.51;;;1.34;;
74180;SDS011;62544;50.826;14.354;2022-09-09T18:44:43;3.51;;;1.34;;
74180;SDS011;62544;50.826;14.354;2022-09-09T18:48:46;3.62;;;1.74;;
74180;SDS011;62544;50.826;14.354;2022-09-09T18:52:47;3.62;;;1.74;;
74180;SDS011;62544;50.826;14.354;2022-09-09T18:56:50;2.86;;;1.51;;
74180;SDS011;62544;50.826;14.354;2022-09-09T19:00:51;2.86;;;1.51;;
74180;SDS011;62544;50.826;14.354;2022-09-09T19:04:53;2.86;;;1.51;;
74180;SDS011;62544;50.826;14.354;2022-09-09T19:08:58;2.40;;;1.25;;
74180;SDS011;62544;50.826;14.354;2022-09-09T19:12:57;2.40;;;1.25;;
74180;SDS011;62544;50.826;14.354;2022-09-09T19:16:59;2.80;;;2.07;;
74180;SDS011;62544;50.826;14.354;2022-09-09T19:21:08;2.80;;;2.07;;
74180;SDS011;62544;50.826;14.354;2022-09-09T19:25:03;2.80;;;2.07;;
74180;SDS011;62544;50.826;14.354;2022-09-09T19:29:06;2.61;;;1.72;;
74180;SDS011;62544;50.826;14.354;2022-09-09T19:33:07;2.61;;;1.72;;
74180;SDS011;62544;50.826;14.354;2022-09-09T19:37:09;4.12;;;2.48;;
74180;SDS011;62544;50.826;14.354;2022-09-09T19:41:13;4.12;;;2.48;;
74180;SDS011;62544;50.826;14.354;2022-09-09T19:45:13;4.42;;;2.50;;
74180;SDS011;62544;50.826;14.354;2022-09-09T19:49:15;4.42;;;2.50;;
74180;SDS011;62544;50.826;14.354;2022-09-09T19:53:17;4.42;;;2.50;;
74180;SDS011;62544;50.826;14.354;2022-09-09T19:57:19;4.12;;;2.73;;
74180;SDS011;62544;50.826;14.354;2022-09-09T20:01:25;4.12;;;2.73;;
74180;SDS011;62544;50.826;14.354;2022-09-09T20:05:23;3.78;;;2.41;;
74180;SDS011;62544;50.826;14.354;2022-09-09T20:09:25;3.78;;;2.41;;
74180;SDS011;62544;50.826;14.354;2022-09-09T20:13:32;3.78;;;2.41;;
74180;SDS011;62544;50.826;14.354;2022-09-09T20:17:29;2.64;;;1.79;;
74180;SDS011;62544;50.826;14.354;2022-09-09T20:21:32;2.64;;;1.79;;
74180;SDS011;62544;50.826;14.354;2022-09-09T20:25:36;2.37;;;1.29;;
74180;SDS011;62544;50.826;14.354;2022-09-09T20:29:35;2.37;;;1.29;;
74180;SDS011;62544;50.826;14.354;2022-09-09T20:33:38;2.37;;;1.29;;
74180;SDS011;62544;50.826;14.354;2022-09-09T20:37:39;1.93;;;1.19;;
74180;SDS011;62544;50.826;14.354;2022-09-09T20:41:41;1.93;;;1.19;;
74180;SDS011;62544;50.826;14.354;2022-09-09T20:45:43;1.33;;;1.17;;
74180;SDS011;62544;50.826;14.354;2022-09-09T20:49:45;1.33;;;1.17;;
74180;SDS011;62544;50.826;14.354;2022-09-09T20:53:47;1.33;;;1.17;;
74180;SDS011;62544;50.826;14.354;2022-09-09T20:57:49;2.87;;;1.58;;
74180;SDS011;62544;50.826;14.354;2022-09-09T21:01:51;2.87;;;1.58;;
74180;SDS011;62544;50.826;14.354;2022-09-09T21:05:53;1.53;;;1.37;;
74180;SDS011;62544;50.826;14.354;2022-09-09T21:09:55;1.53;;;1.37;;
74180;SDS011;62544;50.826;14.354;2022-09-09T21:13:57;1.53;;;1.37;;
74180;SDS011;62544;50.826;14.354;2022-09-09T21:17:59;1.54;;;0.98;;
74180;SDS011;62544;50.826;14.354;2022-09-09T21:22:01;1.54;;;0.98;;
74180;SDS011;62544;50.826;14.354;2022-09-09T21:26:03;4.47;;;1.65;;
74180;SDS011;62544;50.826;14.354;2022-09-09T21:30:05;4.47;;;1.65;;
74180;SDS011;62544;50.826;14.354;2022-09-09T21:34:07;4.47;;;1.65;;
74180;SDS011;62544;50.826;14.354;2022-09-09T21:38:11;2.22;;;1.56;;
74180;SDS011;62544;50.826;14.354;2022-09-09T21:42:11;2.22;;;1.56;;
74180;SDS011;62544;50.826;14.354;2022-09-09T21:46:14;3.42;;;2.05;;
74180;SDS011;62544;50.826;14.354;2022-09-09T21:50:15;3.42;;;2.05;;
74180;SDS011;62544;50.826;14.354;2022-09-09T21:54:17;3.42;;;2.05;;
74180;SDS011;62544;50.826;14.354;2022-09-09T21:58:19;11.35;;;3.29;;
74180;SDS011;62544;50.826;14.354;2022-09-09T22:02:21;11.35;;;3.29;;
74180;SDS011;62544;50.826;14.354;2022-09-09T22:06:23;4.27;;;2.84;;
74180;SDS011;62544;50.826;14.354;2022-09-09T22:10:25;4.27;;;2.84;;
74180;SDS011;62544;50.826;14.354;2022-09-09T22:14:27;4.27;;;2.84;;
74180;SDS011;62544;50.826;14.354;2022-09-09T22:18:29;10.32;;;3.63;;
74180;SDS011;62544;50.826;14.354;2022-09-09T22:22:31;10.32;;;3.63;;
74180;SDS011;62544;50.826;14.354;2022-09-09T22:26:34;6.81;;;3.10;;
74180;SDS011;62544;50.826;14.354;2022-09-09T22:30:35;6.81;;;3.10;;
74180;SDS011;62544;50.826;14.354;2022-09-09T22:34:37;6.81;;;3.10;;
74180;SDS011;62544;50.826;14.354;2022-09-09T22:38:39;5.62;;;3.21;;
74180;SDS011;62544;50.826;14.354;2022-09-09T22:42:41;5.62;;;3.21;;
74180;SDS011;62544;50.826;14.354;2022-09-09T22:46:43;4.23;;;2.90;;
74180;SDS011;62544;50.826;14.354;2022-09-09T22:50:45;4.23;;;2.90;;
74180;SDS011;62544;50.826;14.354;2022-09-09T22:54:47;4.23;;;2.90;;
74180;SDS011;62544;50.826;14.354;2022-09-09T22:58:51;3.95;;;2.80;;
74180;SDS011;62544;50.826;14.354;2022-09-09T23:02:52;3.95;;;2.80;;
74180;SDS011;62544;50.826;14.354;2022-09-09T23:06:53;2.42;;;1.97;;
74180;SDS011;62544;50.826;14.354;2022-09-09T23:10:55;2.42;;;1.97;;
74180;SDS011;62544;50.826;14.354;2022-09-09T23:14:57;2.42;;;1.97;;
74180;SDS011;62544;50.826;14.354;2022-09-09T23:18:59;2.37;;;1.91;;
74180;SDS011;62544;50.826;14.354;2022-09-09T23:23:01;2.37;;;1.91;;
74180;SDS011;62544;50.826;14.354;2022-09-09T23:27:03;7.15;;;4.42;;
74180;SDS011;62544;50.826;14.354;2022-09-09T23:31:09;7.15;;;4.42;;
74180;SDS011;62544;50.826;14.354;2022-09-09T23:35:07;7.15;;;4.42;;
74180;SDS011;62544;50.826;14.354;2022-09-09T23:39:09;20.18;;;5.33;;
74180;SDS011;62544;50.826;14.354;2022-09-09T23:43:11;20.18;;;5.33;;
74180;SDS011;62544;50.826;14.354;2022-09-09T23:47:13;4.55;;;3.49;;
74180;SDS011;62544;50.826;14.354;2022-09-09T23:51:15;4.55;;;3.49;;
74180;SDS011;62544;50.826;14.354;2022-09-09T23:55:17;4.24;;;3.11;;
74180;SDS011;62544;50.826;14.354;2022-09-09T23:59:19;4.24;;;3.11;;
